sensor_id;sensor_type;location;lat;lon;timestamp;temperature;humidity
20446;DHT22;10382;49.140;9.234;2023-08-12T00:01:17;21.30;99.90
20446;DHT22;10382;49.140;9.234;2023-08-12T00:03:46;21.40;99.90
20446;DHT22;10382;49.140;9.234;2023-08-12T00:06:13;21.40;99.90
20446;DHT22;10382;49.140;9.234;2023-08-12T00:08:40;21.50;99.90
20446;DHT22;10382;49.140;9.234;2023-08-12T00:11:07;21.50;99.90
20446;DHT22;10382;49.140;9.234;2023-08-12T00:13:34;21.60;99.90
20446;DHT22;10382;49.140;9.234;2023-08-12T00:16:02;21.40;99.90
20446;DHT22;10382;49.140;9.234;2023-08-12T00:18:29;21.30;99.90
20446;DHT22;10382;49.140;9.234;2023-08-12T00:21:06;21.20;99.90
20446;DHT22;10382;49.140;9.234;2023-08-12T00:23:35;20.90;99.90
20446;DHT22;10382;49.140;9.234;2023-08-12T00:26:01;20.80;99.90
20446;DHT22;10382;49.140;9.234;2023-08-12T00:28:28;20.70;99.90
20446;DHT22;10382;49.140;9.234;2023-08-12T00:30:55;20.80;99.90
20446;DHT22;10382;49.140;9.234;2023-08-12T00:33:23;20.80;99.90
20446;DHT22;10382;49.140;9.234;2023-08-12T00:35:50;20.90;99.90
20446;DHT22;10382;49.140;9.234;2023-08-12T00:38:17;21.00;99.90
20446;DHT22;10382;49.140;9.234;2023-08-12T00:40:44;21.10;99.90
20446;DHT22;10382;49.140;9.234;2023-08-12T00:43:11;21.20;99.90
20446;DHT22;10382;49.140;9.234;2023-08-12T00:45:38;21.30;99.90
20446;DHT22;10382;49.140;9.234;2023-08-12T00:48:06;21.40;99.90
20446;DHT22;10382;49.140;9.234;2023-08-12T00:50:36;21.40;99.90
20446;DHT22;10382;49.140;9.234;2023-08-12T00:53:03;21.50;99.90
20446;DHT22;10382;49.140;9.234;2023-08-12T00:55:32;21.50;99.90
20446;DHT22;10382;49.140;9.234;2023-08-12T00:58:00;21.60;99.90
20446;DHT22;10382;49.140;9.234;2023-08-12T01:00:27;21.50;99.90
20446;DHT22;10382;49.140;9.234;2023-08-12T01:02:54;21.30;99.90
20446;DHT22;10382;49.140;9.234;2023-08-12T01:05:22;21.30;99.90
20446;DHT22;10382;49.140;9.234;2023-08-12T01:07:51;21.20;99.90
20446;DHT22;10382;49.140;9.234;2023-08-12T01:10:20;21.20;99.90
20446;DHT22;10382;49.140;9.234;2023-08-12T01:12:50;21.10;99.90
20446;DHT22;10382;49.140;9.234;2023-08-12T01:15:21;21.10;99.90
20446;DHT22;10382;49.140;9.234;2023-08-12T01:17:49;21.10;99.90
20446;DHT22;10382;49.140;9.234;2023-08-12T01:20:20;21.10;99.90
20446;DHT22;10382;49.140;9.234;2023-08-12T01:23:12;21.10;99.90
20446;DHT22;10382;49.140;9.234;2023-08-12T01:25:39;21.10;99.90
20446;DHT22;10382;49.140;9.234;2023-08-12T01:28:07;21.10;99.90
20446;DHT22;10382;49.140;9.234;2023-08-12T01:30:41;21.10;99.90
20446;DHT22;10382;49.140;9.234;2023-08-12T01:33:16;21.20;99.90
20446;DHT22;10382;49.140;9.234;2023-08-12T01:35:49;21.20;99.90
20446;DHT22;10382;49.140;9.234;2023-08-12T01:38:19;21.30;99.90
20446;DHT22;10382;49.140;9.234;2023-08-12T01:40:48;21.20;99.90
20446;DHT22;10382;49.140;9.234;2023-08-12T01:43:16;21.20;99.90
20446;DHT22;10382;49.140;9.234;2023-08-12T01:45:43;21.10;99.90
20446;DHT22;10382;49.140;9.234;2023-08-12T01:48:10;21.00;99.90
20446;DHT22;10382;49.140;9.234;2023-08-12T01:50:37;20.90;99.90
20446;DHT22;10382;49.140;9.234;2023-08-12T01:53:04;20.80;99.90
20446;DHT22;10382;49.140;9.234;2023-08-12T01:55:32;20.70;99.90
20446;DHT22;10382;49.140;9.234;2023-08-12T01:57:59;20.70;99.90
20446;DHT22;10382;49.140;9.234;2023-08-12T02:00:26;20.80;99.90
20446;DHT22;10382;49.140;9.234;2023-08-12T02:02:53;20.80;99.90
20446;DHT22;10382;49.140;9.234;2023-08-12T02:05:19;20.90;99.90
20446;DHT22;10382;49.140;9.234;2023-08-12T02:07:46;20.90;99.90
20446;DHT22;10382;49.140;9.234;2023-08-12T02:10:13;21.00;99.90
20446;DHT22;10382;49.140;9.234;2023-08-12T02:12:42;21.10;99.90
20446;DHT22;10382;49.140;9.234;2023-08-12T02:15:09;21.10;99.90
20446;DHT22;10382;49.140;9.234;2023-08-12T02:17:36;21.20;99.90
20446;DHT22;10382;49.140;9.234;2023-08-12T02:20:04;21.30;99.90
20446;DHT22;10382;49.140;9.234;2023-08-12T02:22:31;21.30;99.90
20446;DHT22;10382;49.140;9.234;2023-08-12T02:24:58;21.30;99.90
20446;DHT22;10382;49.140;9.234;2023-08-12T02:27:25;21.20;99.90
20446;DHT22;10382;49.140;9.234;2023-08-12T02:29:54;21.20;99.90
20446;DHT22;10382;49.140;9.234;2023-08-12T02:32:21;21.10;99.90
20446;DHT22;10382;49.140;9.234;2023-08-12T02:34:48;21.00;99.90
20446;DHT22;10382;49.140;9.234;2023-08-12T02:37:15;21.00;99.90
20446;DHT22;10382;49.140;9.234;2023-08-12T02:39:42;21.00;99.90
20446;DHT22;10382;49.140;9.234;2023-08-12T02:42:09;20.90;99.90
20446;DHT22;10382;49.140;9.234;2023-08-12T02:44:38;20.80;99.90
20446;DHT22;10382;49.140;9.234;2023-08-12T02:47:06;20.80;99.90
20446;DHT22;10382;49.140;9.234;2023-08-12T02:49:33;20.70;99.90
20446;DHT22;10382;49.140;9.234;2023-08-12T02:52:00;20.70;99.90
20446;DHT22;10382;49.140;9.234;2023-08-12T02:54:27;20.70;99.90
20446;DHT22;10382;49.140;9.234;2023-08-12T02:56:54;20.70;99.90
20446;DHT22;10382;49.140;9.234;2023-08-12T02:59:21;20.60;99.90
20446;DHT22;10382;49.140;9.234;2023-08-12T03:01:48;20.70;99.90
20446;DHT22;10382;49.140;9.234;2023-08-12T03:04:16;20.70;99.90
20446;DHT22;10382;49.140;9.234;2023-08-12T03:06:43;20.90;99.90
20446;DHT22;10382;49.140;9.234;2023-08-12T03:09:10;21.00;99.90
20446;DHT22;10382;49.140;9.234;2023-08-12T03:11:37;21.10;99.90
20446;DHT22;10382;49.140;9.234;2023-08-12T03:14:06;21.20;99.90
20446;DHT22;10382;49.140;9.234;2023-08-12T03:16:33;21.30;99.90
20446;DHT22;10382;49.140;9.234;2023-08-12T03:19:00;21.20;99.90
20446;DHT22;10382;49.140;9.234;2023-08-12T03:21:28;21.20;99.90
20446;DHT22;10382;49.140;9.234;2023-08-12T03:23:55;21.20;99.90
20446;DHT22;10382;49.140;9.234;2023-08-12T03:26:22;21.20;99.90
20446;DHT22;10382;49.140;9.234;2023-08-12T03:28:49;21.30;99.90
20446;DHT22;10382;49.140;9.234;2023-08-12T03:31:15;21.30;99.90
20446;DHT22;10382;49.140;9.234;2023-08-12T03:33:42;21.20;99.90
20446;DHT22;10382;49.140;9.234;2023-08-12T03:36:09;21.20;99.90
20446;DHT22;10382;49.140;9.234;2023-08-12T03:38:37;21.00;99.90
20446;DHT22;10382;49.140;9.234;2023-08-12T03:41:04;21.00;99.90
20446;DHT22;10382;49.140;9.234;2023-08-12T03:43:31;21.00;99.90
20446;DHT22;10382;49.140;9.234;2023-08-12T03:45:59;21.10;99.90
20446;DHT22;10382;49.140;9.234;2023-08-12T03:48:26;21.20;99.90
20446;DHT22;10382;49.140;9.234;2023-08-12T03:50:57;21.30;99.90
20446;DHT22;10382;49.140;9.234;2023-08-12T03:53:25;21.40;99.90
20446;DHT22;10382;49.140;9.234;2023-08-12T03:55:53;21.50;99.90
20446;DHT22;10382;49.140;9.234;2023-08-12T03:58:23;21.60;99.90
20446;DHT22;10382;49.140;9.234;2023-08-12T04:00:50;21.70;99.90
20446;DHT22;10382;49.140;9.234;2023-08-12T04:03:16;21.70;99.90
20446;DHT22;10382;49.140;9.234;2023-08-12T04:05:48;21.80;99.90
20446;DHT22;10382;49.140;9.234;2023-08-12T04:08:18;21.80;99.90
20446;DHT22;10382;49.140;9.234;2023-08-12T04:10:46;21.90;99.90
20446;DHT22;10382;49.140;9.234;2023-08-12T04:13:15;21.90;99.90
20446;DHT22;10382;49.140;9.234;2023-08-12T04:15:42;22.00;99.90
20446;DHT22;10382;49.140;9.234;2023-08-12T04:18:09;22.00;99.90
20446;DHT22;10382;49.140;9.234;2023-08-12T04:20:37;22.10;99.90
20446;DHT22;10382;49.140;9.234;2023-08-12T04:23:05;22.10;99.90
20446;DHT22;10382;49.140;9.234;2023-08-12T04:25:33;22.10;99.90
20446;DHT22;10382;49.140;9.234;2023-08-12T04:28:00;22.00;99.90
20446;DHT22;10382;49.140;9.234;2023-08-12T04:30:28;22.00;99.90
20446;DHT22;10382;49.140;9.234;2023-08-12T04:32:55;22.00;99.90
20446;DHT22;10382;49.140;9.234;2023-08-12T04:35:23;21.90;99.90
20446;DHT22;10382;49.140;9.234;2023-08-12T04:37:50;21.90;99.90
20446;DHT22;10382;49.140;9.234;2023-08-12T04:40:17;21.90;99.90
20446;DHT22;10382;49.140;9.234;2023-08-12T04:42:43;21.80;99.90
20446;DHT22;10382;49.140;9.234;2023-08-12T04:45:10;21.90;99.90
20446;DHT22;10382;49.140;9.234;2023-08-12T04:47:39;21.90;99.90
20446;DHT22;10382;49.140;9.234;2023-08-12T04:50:07;21.80;99.90
20446;DHT22;10382;49.140;9.234;2023-08-12T04:52:34;21.60;99.90
20446;DHT22;10382;49.140;9.234;2023-08-12T04:55:01;21.30;99.90
20446;DHT22;10382;49.140;9.234;2023-08-12T04:57:28;21.30;99.90
20446;DHT22;10382;49.140;9.234;2023-08-12T04:59:55;21.20;99.90
20446;DHT22;10382;49.140;9.234;2023-08-12T05:02:22;21.20;99.90
20446;DHT22;10382;49.140;9.234;2023-08-12T05:04:51;21.20;99.90
20446;DHT22;10382;49.140;9.234;2023-08-12T05:07:18;21.20;99.90
20446;DHT22;10382;49.140;9.234;2023-08-12T05:09:45;21.20;99.90
20446;DHT22;10382;49.140;9.234;2023-08-12T05:12:12;21.30;99.90
20446;DHT22;10382;49.140;9.234;2023-08-12T05:14:39;21.40;99.90
20446;DHT22;10382;49.140;9.234;2023-08-12T05:17:06;21.50;99.90
20446;DHT22;10382;49.140;9.234;2023-08-12T05:19:33;21.70;99.90
20446;DHT22;10382;49.140;9.234;2023-08-12T05:22:02;21.80;99.90
20446;DHT22;10382;49.140;9.234;2023-08-12T05:24:29;21.80;99.90
20446;DHT22;10382;49.140;9.234;2023-08-12T05:26:55;21.90;99.90
20446;DHT22;10382;49.140;9.234;2023-08-12T05:29:22;22.00;99.90
20446;DHT22;10382;49.140;9.234;2023-08-12T05:31:49;21.90;99.90
20446;DHT22;10382;49.140;9.234;2023-08-12T05:34:16;21.90;99.90
20446;DHT22;10382;49.140;9.234;2023-08-12T05:36:43;21.90;99.90
20446;DHT22;10382;49.140;9.234;2023-08-12T05:39:11;21.90;99.90
20446;DHT22;10382;49.140;9.234;2023-08-12T05:41:38;21.80;99.90
20446;DHT22;10382;49.140;9.234;2023-08-12T05:44:05;21.80;99.90
20446;DHT22;10382;49.140;9.234;2023-08-12T05:46:32;21.90;99.90
20446;DHT22;10382;49.140;9.234;2023-08-12T05:48:59;22.00;99.90
20446;DHT22;10382;49.140;9.234;2023-08-12T05:51:26;22.00;99.90
20446;DHT22;10382;49.140;9.234;2023-08-12T05:53:53;22.20;99.90
20446;DHT22;10382;49.140;9.234;2023-08-12T05:56:21;22.30;99.90
20446;DHT22;10382;49.140;9.234;2023-08-12T05:58:48;22.40;99.90
20446;DHT22;10382;49.140;9.234;2023-08-12T06:01:14;22.50;99.90
20446;DHT22;10382;49.140;9.234;2023-08-12T06:03:41;22.70;99.90
20446;DHT22;10382;49.140;9.234;2023-08-12T06:06:08;22.80;99.90
20446;DHT22;10382;49.140;9.234;2023-08-12T06:08:35;22.90;99.90
20446;DHT22;10382;49.140;9.234;2023-08-12T06:11:02;23.00;99.90
20446;DHT22;10382;49.140;9.234;2023-08-12T06:13:30;23.20;99.90
20446;DHT22;10382;49.140;9.234;2023-08-12T06:15:57;23.40;99.90
20446;DHT22;10382;49.140;9.234;2023-08-12T06:18:24;23.60;99.90
20446;DHT22;10382;49.140;9.234;2023-08-12T06:20:50;23.80;99.90
20446;DHT22;10382;49.140;9.234;2023-08-12T06:23:17;24.10;99.90
20446;DHT22;10382;49.140;9.234;2023-08-12T06:25:44;24.30;99.90
20446;DHT22;10382;49.140;9.234;2023-08-12T06:28:11;24.50;99.90
20446;DHT22;10382;49.140;9.234;2023-08-12T06:30:39;24.60;99.90
20446;DHT22;10382;49.140;9.234;2023-08-12T06:33:06;24.80;99.90
20446;DHT22;10382;49.140;9.234;2023-08-12T06:35:33;24.90;99.90
20446;DHT22;10382;49.140;9.234;2023-08-12T06:37:59;24.90;99.90
20446;DHT22;10382;49.140;9.234;2023-08-12T06:40:26;24.90;99.90
20446;DHT22;10382;49.140;9.234;2023-08-12T06:42:53;25.00;99.90
20446;DHT22;10382;49.140;9.234;2023-08-12T06:45:20;24.90;99.90
20446;DHT22;10382;49.140;9.234;2023-08-12T06:47:48;24.90;99.90
20446;DHT22;10382;49.140;9.234;2023-08-12T06:50:15;25.00;99.90
20446;DHT22;10382;49.140;9.234;2023-08-12T06:52:42;25.00;99.90
20446;DHT22;10382;49.140;9.234;2023-08-12T06:55:09;25.10;99.90
20446;DHT22;10382;49.140;9.234;2023-08-12T06:57:36;25.30;99.90
20446;DHT22;10382;49.140;9.234;2023-08-12T07:00:03;25.50;99.90
20446;DHT22;10382;49.140;9.234;2023-08-12T07:02:30;25.70;99.90
20446;DHT22;10382;49.140;9.234;2023-08-12T07:04:59;26.00;99.90
20446;DHT22;10382;49.140;9.234;2023-08-12T07:07:26;26.50;99.90
20446;DHT22;10382;49.140;9.234;2023-08-12T07:09:52;26.80;99.90
20446;DHT22;10382;49.140;9.234;2023-08-12T07:12:19;27.10;99.90
20446;DHT22;10382;49.140;9.234;2023-08-12T07:14:46;27.40;99.90
20446;DHT22;10382;49.140;9.234;2023-08-12T07:17:13;27.80;99.90
20446;DHT22;10382;49.140;9.234;2023-08-12T07:19:40;28.20;99.90
20446;DHT22;10382;49.140;9.234;2023-08-12T07:22:08;28.30;99.90
20446;DHT22;10382;49.140;9.234;2023-08-12T07:24:35;28.40;99.90
20446;DHT22;10382;49.140;9.234;2023-08-12T07:27:02;28.40;99.90
20446;DHT22;10382;49.140;9.234;2023-08-12T07:29:28;28.60;99.90
20446;DHT22;10382;49.140;9.234;2023-08-12T07:31:56;28.60;99.90
20446;DHT22;10382;49.140;9.234;2023-08-12T07:34:22;28.20;99.90
20446;DHT22;10382;49.140;9.234;2023-08-12T07:36:49;28.10;99.90
20446;DHT22;10382;49.140;9.234;2023-08-12T07:39:16;28.10;99.90
20446;DHT22;10382;49.140;9.234;2023-08-12T07:41:43;28.10;99.90
20446;DHT22;10382;49.140;9.234;2023-08-12T07:44:10;28.00;99.90
20446;DHT22;10382;49.140;9.234;2023-08-12T07:46:37;28.00;99.90
20446;DHT22;10382;49.140;9.234;2023-08-12T07:49:04;28.20;99.90
20446;DHT22;10382;49.140;9.234;2023-08-12T07:51:31;28.50;99.90
20446;DHT22;10382;49.140;9.234;2023-08-12T07:53:58;28.50;99.90
20446;DHT22;10382;49.140;9.234;2023-08-12T07:56:26;28.60;99.90
20446;DHT22;10382;49.140;9.234;2023-08-12T07:58:53;28.80;99.90
20446;DHT22;10382;49.140;9.234;2023-08-12T08:01:19;29.00;99.90
20446;DHT22;10382;49.140;9.234;2023-08-12T08:03:46;28.90;99.90
20446;DHT22;10382;49.140;9.234;2023-08-12T08:06:13;28.60;99.90
20446;DHT22;10382;49.140;9.234;2023-08-12T08:08:40;28.40;99.90
20446;DHT22;10382;49.140;9.234;2023-08-12T08:11:07;28.10;99.90
20446;DHT22;10382;49.140;9.234;2023-08-12T08:13:35;27.90;99.90
20446;DHT22;10382;49.140;9.234;2023-08-12T08:16:02;27.80;99.90
20446;DHT22;10382;49.140;9.234;2023-08-12T08:18:29;27.70;99.90
20446;DHT22;10382;49.140;9.234;2023-08-12T08:20:55;27.70;99.90
20446;DHT22;10382;49.140;9.234;2023-08-12T08:23:22;27.70;99.90
20446;DHT22;10382;49.140;9.234;2023-08-12T08:25:49;27.60;99.90
20446;DHT22;10382;49.140;9.234;2023-08-12T08:28:16;27.60;99.90
20446;DHT22;10382;49.140;9.234;2023-08-12T08:30:45;27.50;99.90
20446;DHT22;10382;49.140;9.234;2023-08-12T08:33:12;27.60;99.90
20446;DHT22;10382;49.140;9.234;2023-08-12T08:35:39;27.70;99.90
20446;DHT22;10382;49.140;9.234;2023-08-12T08:38:06;27.70;99.90
20446;DHT22;10382;49.140;9.234;2023-08-12T08:40:33;27.90;99.90
20446;DHT22;10382;49.140;9.234;2023-08-12T08:43:02;28.00;99.90
20446;DHT22;10382;49.140;9.234;2023-08-12T08:45:32;28.20;99.90
20446;DHT22;10382;49.140;9.234;2023-08-12T08:48:01;28.40;99.90
20446;DHT22;10382;49.140;9.234;2023-08-12T08:50:29;28.60;99.90
20446;DHT22;10382;49.140;9.234;2023-08-12T08:52:57;28.90;99.90
20446;DHT22;10382;49.140;9.234;2023-08-12T08:55:24;29.10;99.90
20446;DHT22;10382;49.140;9.234;2023-08-12T08:57:51;29.20;99.90
20446;DHT22;10382;49.140;9.234;2023-08-12T09:00:19;29.30;99.90
20446;DHT22;10382;49.140;9.234;2023-08-12T09:02:47;29.60;99.90
20446;DHT22;10382;49.140;9.234;2023-08-12T09:05:15;29.90;99.90
20446;DHT22;10382;49.140;9.234;2023-08-12T09:07:43;30.00;99.90
20446;DHT22;10382;49.140;9.234;2023-08-12T09:10:11;30.30;99.90
20446;DHT22;10382;49.140;9.234;2023-08-12T09:12:38;30.60;99.90
20446;DHT22;10382;49.140;9.234;2023-08-12T09:15:06;31.00;99.90
20446;DHT22;10382;49.140;9.234;2023-08-12T09:17:33;31.30;99.90
20446;DHT22;10382;49.140;9.234;2023-08-12T09:20:00;31.70;99.90
20446;DHT22;10382;49.140;9.234;2023-08-12T09:22:30;32.10;99.90
20446;DHT22;10382;49.140;9.234;2023-08-12T09:24:57;32.40;99.90
20446;DHT22;10382;49.140;9.234;2023-08-12T09:27:24;32.60;99.90
20446;DHT22;10382;49.140;9.234;2023-08-12T09:29:55;32.40;99.90
20446;DHT22;10382;49.140;9.234;2023-08-12T09:32:23;32.20;99.90
20446;DHT22;10382;49.140;9.234;2023-08-12T09:34:51;31.80;99.90
20446;DHT22;10382;49.140;9.234;2023-08-12T09:37:19;31.50;99.90
20446;DHT22;10382;49.140;9.234;2023-08-12T09:39:48;31.60;99.90
20446;DHT22;10382;49.140;9.234;2023-08-12T09:42:15;31.70;99.90
20446;DHT22;10382;49.140;9.234;2023-08-12T09:44:43;31.90;99.90
20446;DHT22;10382;49.140;9.234;2023-08-12T09:47:10;32.00;99.90
20446;DHT22;10382;49.140;9.234;2023-08-12T09:49:38;32.00;99.90
20446;DHT22;10382;49.140;9.234;2023-08-12T09:52:06;32.10;99.90
20446;DHT22;10382;49.140;9.234;2023-08-12T09:54:33;32.20;99.90
20446;DHT22;10382;49.140;9.234;2023-08-12T09:57:04;32.50;99.90
20446;DHT22;10382;49.140;9.234;2023-08-12T09:59:33;32.90;99.90
20446;DHT22;10382;49.140;9.234;2023-08-12T10:02:02;33.40;99.90
20446;DHT22;10382;49.140;9.234;2023-08-12T10:04:35;33.80;99.90
20446;DHT22;10382;49.140;9.234;2023-08-12T10:07:02;34.00;99.90
20446;DHT22;10382;49.140;9.234;2023-08-12T10:09:30;34.10;99.90
20446;DHT22;10382;49.140;9.234;2023-08-12T10:11:57;34.20;99.90
20446;DHT22;10382;49.140;9.234;2023-08-12T10:14:26;34.40;99.90
20446;DHT22;10382;49.140;9.234;2023-08-12T10:16:54;34.50;99.90
20446;DHT22;10382;49.140;9.234;2023-08-12T10:19:22;34.80;99.90
20446;DHT22;10382;49.140;9.234;2023-08-12T10:21:54;35.10;99.90
20446;DHT22;10382;49.140;9.234;2023-08-12T10:24:23;35.40;99.20
20446;DHT22;10382;49.140;9.234;2023-08-12T10:26:51;35.70;98.30
20446;DHT22;10382;49.140;9.234;2023-08-12T10:29:18;35.60;97.60
20446;DHT22;10382;49.140;9.234;2023-08-12T10:31:47;35.70;97.80
20446;DHT22;10382;49.140;9.234;2023-08-12T10:34:21;35.90;97.10
20446;DHT22;10382;49.140;9.234;2023-08-12T10:36:51;36.20;94.90
20446;DHT22;10382;49.140;9.234;2023-08-12T10:39:24;36.10;94.90
20446;DHT22;10382;49.140;9.234;2023-08-12T10:41:51;36.00;95.00
20446;DHT22;10382;49.140;9.234;2023-08-12T10:44:20;35.50;95.60
20446;DHT22;10382;49.140;9.234;2023-08-12T10:46:53;35.20;96.40
20446;DHT22;10382;49.140;9.234;2023-08-12T10:49:22;35.20;96.80
20446;DHT22;10382;49.140;9.234;2023-08-12T10:51:50;35.20;96.80
20446;DHT22;10382;49.140;9.234;2023-08-12T10:54:20;35.30;95.90
20446;DHT22;10382;49.140;9.234;2023-08-12T10:57:06;35.50;95.30
20446;DHT22;10382;49.140;9.234;2023-08-12T10:59:52;35.70;94.70
20446;DHT22;10382;49.140;9.234;2023-08-12T11:02:24;35.30;93.90
20446;DHT22;10382;49.140;9.234;2023-08-12T11:04:53;34.80;95.20
20446;DHT22;10382;49.140;9.234;2023-08-12T11:07:21;34.60;95.70
20446;DHT22;10382;49.140;9.234;2023-08-12T11:09:52;34.60;96.20
20446;DHT22;10382;49.140;9.234;2023-08-12T11:12:29;34.00;95.60
20446;DHT22;10382;49.140;9.234;2023-08-12T11:14:58;34.00;96.10
20446;DHT22;10382;49.140;9.234;2023-08-12T11:17:37;34.10;94.00
20446;DHT22;10382;49.140;9.234;2023-08-12T11:20:05;34.20;95.20
20446;DHT22;10382;49.140;9.234;2023-08-12T11:22:36;34.30;95.40
20446;DHT22;10382;49.140;9.234;2023-08-12T11:25:04;34.50;94.70
20446;DHT22;10382;49.140;9.234;2023-08-12T11:27:37;34.50;94.70
20446;DHT22;10382;49.140;9.234;2023-08-12T11:30:05;34.70;94.80
20446;DHT22;10382;49.140;9.234;2023-08-12T11:32:33;34.80;94.50
20446;DHT22;10382;49.140;9.234;2023-08-12T11:35:01;35.00;93.70
20446;DHT22;10382;49.140;9.234;2023-08-12T11:37:29;35.20;93.50
20446;DHT22;10382;49.140;9.234;2023-08-12T11:39:56;35.30;94.10
20446;DHT22;10382;49.140;9.234;2023-08-12T11:42:23;35.50;93.60
20446;DHT22;10382;49.140;9.234;2023-08-12T11:44:50;35.80;93.10
20446;DHT22;10382;49.140;9.234;2023-08-12T11:47:16;36.10;92.80
20446;DHT22;10382;49.140;9.234;2023-08-12T11:49:43;36.40;92.00
20446;DHT22;10382;49.140;9.234;2023-08-12T11:52:12;36.40;91.90
20446;DHT22;10382;49.140;9.234;2023-08-12T11:54:39;36.20;92.40
20446;DHT22;10382;49.140;9.234;2023-08-12T11:57:06;36.00;92.80
20446;DHT22;10382;49.140;9.234;2023-08-12T11:59:33;35.50;92.70
20446;DHT22;10382;49.140;9.234;2023-08-12T12:02:02;34.80;93.90
20446;DHT22;10382;49.140;9.234;2023-08-12T12:04:30;34.10;94.70
20446;DHT22;10382;49.140;9.234;2023-08-12T12:06:57;33.40;95.70
20446;DHT22;10382;49.140;9.234;2023-08-12T12:09:29;32.80;96.10
20446;DHT22;10382;49.140;9.234;2023-08-12T12:11:56;32.20;97.30
20446;DHT22;10382;49.140;9.234;2023-08-12T12:14:24;31.70;98.50
20446;DHT22;10382;49.140;9.234;2023-08-12T12:16:52;31.20;99.90
20446;DHT22;10382;49.140;9.234;2023-08-12T12:19:19;30.80;99.90
20446;DHT22;10382;49.140;9.234;2023-08-12T12:21:48;30.60;99.90
20446;DHT22;10382;49.140;9.234;2023-08-12T12:24:16;30.30;99.90
20446;DHT22;10382;49.140;9.234;2023-08-12T12:26:45;30.10;99.90
20446;DHT22;10382;49.140;9.234;2023-08-12T12:29:13;29.80;99.90
20446;DHT22;10382;49.140;9.234;2023-08-12T12:31:41;29.60;99.90
20446;DHT22;10382;49.140;9.234;2023-08-12T12:34:08;29.50;99.90
20446;DHT22;10382;49.140;9.234;2023-08-12T12:36:37;29.40;99.90
20446;DHT22;10382;49.140;9.234;2023-08-12T12:39:04;29.50;99.90
20446;DHT22;10382;49.140;9.234;2023-08-12T12:41:31;29.70;99.90
20446;DHT22;10382;49.140;9.234;2023-08-12T12:43:59;29.70;99.90
20446;DHT22;10382;49.140;9.234;2023-08-12T12:46:26;29.60;99.90
20446;DHT22;10382;49.140;9.234;2023-08-12T12:48:53;29.80;99.90
20446;DHT22;10382;49.140;9.234;2023-08-12T12:51:20;30.00;99.90
20446;DHT22;10382;49.140;9.234;2023-08-12T12:53:47;30.20;99.90
20446;DHT22;10382;49.140;9.234;2023-08-12T12:56:14;30.20;99.90
20446;DHT22;10382;49.140;9.234;2023-08-12T12:58:41;30.10;99.90
20446;DHT22;10382;49.140;9.234;2023-08-12T13:01:09;30.00;99.90
20446;DHT22;10382;49.140;9.234;2023-08-12T13:03:36;29.90;99.90
20446;DHT22;10382;49.140;9.234;2023-08-12T13:06:02;29.80;99.90
20446;DHT22;10382;49.140;9.234;2023-08-12T13:08:29;29.60;99.90
20446;DHT22;10382;49.140;9.234;2023-08-12T13:10:57;29.50;99.90
20446;DHT22;10382;49.140;9.234;2023-08-12T13:13:24;29.40;99.90
20446;DHT22;10382;49.140;9.234;2023-08-12T13:15:51;29.40;99.90
20446;DHT22;10382;49.140;9.234;2023-08-12T13:18:20;29.50;99.90
20446;DHT22;10382;49.140;9.234;2023-08-12T13:20:46;29.80;99.90
20446;DHT22;10382;49.140;9.234;2023-08-12T13:23:14;30.20;99.90
20446;DHT22;10382;49.140;9.234;2023-08-12T13:25:41;30.70;99.90
20446;DHT22;10382;49.140;9.234;2023-08-12T13:28:08;31.10;99.90
20446;DHT22;10382;49.140;9.234;2023-08-12T13:30:35;31.10;99.90
20446;DHT22;10382;49.140;9.234;2023-08-12T13:33:03;31.00;99.90
20446;DHT22;10382;49.140;9.234;2023-08-12T13:35:31;30.80;99.90
20446;DHT22;10382;49.140;9.234;2023-08-12T13:37:58;30.70;99.90
20446;DHT22;10382;49.140;9.234;2023-08-12T13:40:25;30.40;99.90
20446;DHT22;10382;49.140;9.234;2023-08-12T13:42:52;30.00;99.90
20446;DHT22;10382;49.140;9.234;2023-08-12T13:45:19;29.60;99.90
20446;DHT22;10382;49.140;9.234;2023-08-12T13:47:46;29.50;99.90
20446;DHT22;10382;49.140;9.234;2023-08-12T13:50:13;29.50;99.90
20446;DHT22;10382;49.140;9.234;2023-08-12T13:52:41;29.40;99.90
20446;DHT22;10382;49.140;9.234;2023-08-12T13:55:08;29.50;99.90
20446;DHT22;10382;49.140;9.234;2023-08-12T13:57:35;29.70;99.90
20446;DHT22;10382;49.140;9.234;2023-08-12T14:00:03;29.90;99.90
20446;DHT22;10382;49.140;9.234;2023-08-12T14:02:35;30.10;99.90
20446;DHT22;10382;49.140;9.234;2023-08-12T14:05:02;30.50;99.90
20446;DHT22;10382;49.140;9.234;2023-08-12T14:07:29;30.90;99.90
20446;DHT22;10382;49.140;9.234;2023-08-12T14:09:57;31.10;99.90
20446;DHT22;10382;49.140;9.234;2023-08-12T14:12:24;31.20;99.90
20446;DHT22;10382;49.140;9.234;2023-08-12T14:14:51;31.00;99.90
20446;DHT22;10382;49.140;9.234;2023-08-12T14:17:18;31.20;99.90
20446;DHT22;10382;49.140;9.234;2023-08-12T14:19:49;31.30;99.90
20446;DHT22;10382;49.140;9.234;2023-08-12T14:22:16;31.20;99.90
20446;DHT22;10382;49.140;9.234;2023-08-12T14:24:43;31.40;99.90
20446;DHT22;10382;49.140;9.234;2023-08-12T14:27:12;31.40;99.90
20446;DHT22;10382;49.140;9.234;2023-08-12T14:29:39;31.50;99.90
20446;DHT22;10382;49.140;9.234;2023-08-12T14:32:06;31.50;99.90
20446;DHT22;10382;49.140;9.234;2023-08-12T14:34:32;31.50;99.90
20446;DHT22;10382;49.140;9.234;2023-08-12T14:36:59;31.40;99.90
20446;DHT22;10382;49.140;9.234;2023-08-12T14:39:26;31.20;99.90
20446;DHT22;10382;49.140;9.234;2023-08-12T14:41:53;31.00;99.90
20446;DHT22;10382;49.140;9.234;2023-08-12T14:44:21;31.20;99.90
20446;DHT22;10382;49.140;9.234;2023-08-12T14:46:48;31.50;99.90
20446;DHT22;10382;49.140;9.234;2023-08-12T14:49:15;31.30;99.90
20446;DHT22;10382;49.140;9.234;2023-08-12T14:51:43;31.10;99.90
20446;DHT22;10382;49.140;9.234;2023-08-12T14:54:10;31.20;99.90
20446;DHT22;10382;49.140;9.234;2023-08-12T14:56:37;31.40;99.90
20446;DHT22;10382;49.140;9.234;2023-08-12T14:59:04;31.80;99.90
20446;DHT22;10382;49.140;9.234;2023-08-12T15:01:32;32.10;99.90
20446;DHT22;10382;49.140;9.234;2023-08-12T15:03:59;32.20;99.90
20446;DHT22;10382;49.140;9.234;2023-08-12T15:06:26;32.10;99.90
20446;DHT22;10382;49.140;9.234;2023-08-12T15:08:53;31.90;99.90
20446;DHT22;10382;49.140;9.234;2023-08-12T15:11:20;31.70;99.90
20446;DHT22;10382;49.140;9.234;2023-08-12T15:13:48;31.60;99.90
20446;DHT22;10382;49.140;9.234;2023-08-12T15:16:14;31.40;99.90
20446;DHT22;10382;49.140;9.234;2023-08-12T15:18:43;31.30;99.90
20446;DHT22;10382;49.140;9.234;2023-08-12T15:21:09;31.20;99.90
20446;DHT22;10382;49.140;9.234;2023-08-12T15:23:36;31.10;99.90
20446;DHT22;10382;49.140;9.234;2023-08-12T15:26:03;31.10;99.90
20446;DHT22;10382;49.140;9.234;2023-08-12T15:28:30;30.90;99.90
20446;DHT22;10382;49.140;9.234;2023-08-12T15:30:57;30.90;99.90
20446;DHT22;10382;49.140;9.234;2023-08-12T15:33:24;30.60;99.90